createdAt,value
2018-02-04T00:00:48.857Z,99.90
2018-02-04T00:03:16.811Z,99.90
2018-02-04T00:05:44.876Z,99.90
2018-02-04T00:08:12.765Z,99.90
2018-02-04T00:10:40.941Z,99.90
2018-02-04T00:13:08.808Z,99.90
2018-02-04T00:15:36.878Z,99.90
2018-02-04T00:18:04.713Z,99.90
2018-02-04T00:20:32.573Z,99.90
2018-02-04T00:23:00.416Z,99.90
2018-02-04T00:25:29.112Z,99.90
2018-02-04T00:27:58.183Z,99.90
2018-02-04T00:30:26.026Z,99.90
2018-02-04T00:32:53.893Z,99.90
2018-02-04T00:35:21.861Z,99.90
2018-02-04T00:37:49.859Z,99.90
2018-02-04T00:40:17.701Z,99.90
2018-02-04T00:42:45.769Z,99.90
2018-02-04T00:45:13.924Z,99.90
2018-02-04T00:47:41.772Z,99.90
2018-02-04T00:50:09.809Z,99.90
2018-02-04T00:52:38.961Z,99.90
2018-02-04T00:55:07.249Z,99.90
2018-02-04T00:57:35.124Z,99.90
2018-02-04T01:00:03.193Z,99.90
2018-02-04T01:02:31.164Z,99.90
2018-02-04T01:04:59.409Z,99.90
2018-02-04T01:07:27.409Z,99.90
2018-02-04T01:09:55.685Z,99.90
2018-02-04T01:12:23.758Z,99.90
2018-02-04T01:14:52.036Z,99.90
2018-02-04T01:17:19.900Z,99.90
2018-02-04T01:19:47.933Z,99.90
2018-02-04T01:22:16.246Z,99.90
2018-02-04T01:24:44.115Z,99.90
2018-02-04T01:27:12.085Z,99.90
2018-02-04T01:29:40.417Z,99.90
2018-02-04T01:32:08.331Z,99.90
2018-02-04T01:34:36.595Z,99.90
2018-02-04T01:37:04.577Z,99.90
2018-02-04T01:39:32.763Z,99.90
2018-02-04T01:42:00.721Z,99.90
2018-02-04T01:44:28.588Z,99.90
2018-02-04T01:46:56.637Z,99.90
2018-02-04T01:49:24.709Z,99.90
2018-02-04T01:51:52.905Z,99.90
2018-02-04T01:54:21.067Z,99.90
2018-02-04T01:56:48.988Z,99.90
2018-02-04T01:59:17.788Z,99.70
2018-02-04T02:01:45.908Z,99.70
2018-02-04T02:04:13.878Z,99.60
2018-02-04T02:06:42.153Z,99.60
2018-02-04T02:09:10.271Z,99.70
2018-02-04T02:11:39.013Z,99.80
2018-02-04T02:14:06.983Z,99.80
2018-02-04T02:16:34.852Z,99.80
2018-02-04T02:19:03.024Z,99.90
2018-02-04T02:21:31.049Z,99.90
2018-02-04T02:23:58.971Z,99.90
2018-02-04T02:26:26.931Z,99.90
2018-02-04T02:28:54.903Z,99.90
2018-02-04T02:31:22.869Z,99.90
2018-02-04T02:33:50.843Z,99.90
2018-02-04T02:36:18.808Z,99.90
2018-02-04T02:38:46.676Z,99.90
2018-02-04T02:41:14.528Z,99.90
2018-02-04T02:43:42.510Z,99.90
2018-02-04T02:46:10.688Z,99.90
2018-02-04T02:48:38.856Z,99.90
2018-02-04T02:51:07.116Z,99.90
2018-02-04T02:53:35.003Z,99.90
2018-02-04T02:56:02.974Z,99.90
2018-02-04T02:58:30.982Z,99.90
2018-02-04T03:00:59.729Z,99.90
2018-02-04T03:03:27.801Z,99.90
2018-02-04T03:05:55.880Z,99.90
2018-02-04T03:08:23.843Z,99.90
2018-02-04T03:10:51.718Z,99.90
2018-02-04T03:13:19.885Z,99.90
2018-02-04T03:15:47.956Z,99.90
2018-02-04T03:18:15.924Z,99.90
2018-02-04T03:20:43.895Z,99.90
2018-02-04T03:23:11.869Z,99.90
2018-02-04T03:25:39.832Z,99.90
2018-02-04T03:28:07.803Z,99.90
2018-02-04T03:30:36.027Z,99.90
2018-02-04T03:33:03.945Z,99.90
2018-02-04T03:35:32.222Z,99.90
2018-02-04T03:38:00.191Z,99.50
2018-02-04T03:40:28.056Z,99.70
2018-02-04T03:42:56.139Z,99.50
2018-02-04T03:45:24.147Z,99.50
2018-02-04T03:47:52.785Z,99.60
2018-02-04T03:50:20.752Z,99.50
2018-02-04T03:52:48.575Z,99.50
2018-02-04T03:55:16.486Z,99.50
2018-02-04T03:57:44.456Z,99.60
2018-02-04T04:00:12.835Z,99.70
2018-02-04T04:02:40.709Z,99.70
2018-02-04T04:05:08.672Z,99.70
2018-02-04T04:07:36.610Z,99.60
2018-02-04T04:10:04.610Z,99.40
2018-02-04T04:12:34.832Z,99.40
2018-02-04T04:15:02.873Z,99.40
2018-02-04T04:17:31.549Z,99.20
2018-02-04T04:19:59.559Z,99.30
2018-02-04T04:22:27.474Z,99.20
2018-02-04T04:24:56.172Z,99.10
2018-02-04T04:27:24.080Z,99.10
2018-02-04T04:29:52.224Z,99.00
2018-02-04T04:32:20.122Z,98.90
2018-02-04T04:34:47.993Z,98.90
2018-02-04T04:37:15.966Z,98.80
2018-02-04T04:39:43.860Z,98.80
2018-02-04T04:42:12.539Z,98.70
2018-02-04T04:44:40.553Z,98.70
2018-02-04T04:47:08.716Z,99.10
2018-02-04T04:49:36.572Z,99.10
2018-02-04T04:52:04.592Z,99.10
2018-02-04T04:54:32.780Z,98.70
2018-02-04T04:57:00.942Z,98.80
2018-02-04T04:59:28.912Z,98.70
2018-02-04T05:01:56.935Z,99.00
2018-02-04T05:04:24.919Z,99.00
2018-02-04T05:06:52.920Z,99.00
2018-02-04T05:09:21.011Z,98.70
2018-02-04T05:11:48.963Z,98.50
2018-02-04T05:14:16.833Z,98.60
2018-02-04T05:16:44.773Z,98.50
2018-02-04T05:19:12.767Z,98.50
2018-02-04T05:21:40.635Z,98.30
2018-02-04T05:24:08.605Z,98.30
2018-02-04T05:26:36.572Z,98.30
2018-02-04T05:29:04.541Z,98.30
2018-02-04T05:31:32.485Z,98.10
2018-02-04T05:34:00.379Z,97.90
2018-02-04T05:36:29.063Z,97.90
2018-02-04T05:38:56.984Z,97.90
2018-02-04T05:41:25.072Z,97.90
2018-02-04T05:43:53.279Z,97.70
2018-02-04T05:46:21.247Z,97.80
2018-02-04T05:48:49.173Z,97.60
2018-02-04T05:51:17.346Z,97.70
2018-02-04T05:53:45.276Z,97.70
2018-02-04T05:56:13.326Z,97.60
2018-02-04T05:58:41.504Z,97.50
2018-02-04T06:01:09.381Z,97.20
2018-02-04T06:03:37.411Z,96.60
2018-02-04T06:06:05.516Z,96.80
2018-02-04T06:08:33.688Z,96.60
2018-02-04T06:11:01.832Z,96.80
2018-02-04T06:13:29.730Z,97.10
2018-02-04T06:15:57.701Z,97.30
2018-02-04T06:18:26.182Z,97.40
2018-02-04T06:20:54.205Z,97.40
2018-02-04T06:23:22.072Z,97.30
2018-02-04T06:25:52.453Z,97.00
2018-02-04T06:28:20.617Z,97.10
2018-02-04T06:30:48.484Z,97.20
2018-02-04T06:33:16.630Z,97.20
2018-02-04T06:35:44.629Z,97.20
2018-02-04T06:38:12.597Z,97.30
2018-02-04T06:40:40.670Z,98.30
2018-02-04T06:43:08.843Z,97.90
2018-02-04T06:45:36.977Z,98.20
2018-02-04T06:48:05.006Z,98.10
2018-02-04T06:50:33.664Z,97.20
2018-02-04T06:53:01.760Z,97.10
2018-02-04T06:55:29.916Z,97.20
2018-02-04T06:57:57.889Z,97.30
2018-02-04T07:00:25.754Z,99.90
2018-02-04T07:02:53.793Z,99.90
2018-02-04T07:05:21.795Z,99.90
2018-02-04T07:07:49.867Z,97.90
2018-02-04T07:10:17.835Z,94.70
2018-02-04T07:12:45.706Z,94.30
2018-02-04T07:15:13.535Z,94.40
2018-02-04T07:17:41.593Z,95.10
2018-02-04T07:20:09.509Z,95.40
2018-02-04T07:22:37.682Z,95.50
2018-02-04T07:25:05.756Z,95.60
2018-02-04T07:27:33.740Z,95.70
2018-02-04T07:30:01.700Z,95.60
2018-02-04T07:32:29.557Z,95.70
2018-02-04T07:34:57.531Z,95.60
2018-02-04T07:37:25.400Z,95.50
2018-02-04T07:39:53.518Z,95.50
2018-02-04T07:42:21.539Z,95.50
2018-02-04T07:44:49.711Z,95.50
2018-02-04T07:47:17.622Z,95.50
2018-02-04T07:49:46.469Z,95.30
2018-02-04T07:52:14.336Z,95.30
2018-02-04T07:54:42.261Z,94.90
2018-02-04T07:57:10.452Z,94.90
2018-02-04T07:59:38.367Z,95.50
2018-02-04T08:02:06.725Z,95.10
2018-02-04T08:04:34.801Z,95.40
2018-02-04T08:07:02.729Z,94.30
2018-02-04T08:09:30.635Z,93.50
2018-02-04T08:11:58.616Z,92.90
2018-02-04T08:14:26.457Z,93.00
2018-02-04T08:16:54.540Z,93.20
2018-02-04T08:19:22.412Z,93.50
2018-02-04T08:21:50.384Z,93.90
2018-02-04T08:24:18.449Z,94.40
2018-02-04T08:26:46.808Z,94.70
2018-02-04T08:29:14.799Z,94.80
2018-02-04T08:31:42.849Z,94.90
2018-02-04T08:34:11.069Z,94.60
2018-02-04T08:36:40.037Z,93.30
2018-02-04T08:39:08.127Z,93.30
2018-02-04T08:41:36.793Z,92.80
2018-02-04T08:44:04.867Z,92.70
2018-02-04T08:46:32.732Z,92.40
2018-02-04T08:49:00.803Z,91.90
2018-02-04T08:51:28.988Z,91.40
2018-02-04T08:53:57.150Z,91.80
2018-02-04T08:56:25.325Z,92.20
2018-02-04T08:58:53.302Z,92.40
2018-02-04T09:01:21.328Z,92.50
2018-02-04T09:03:49.199Z,92.60
2018-02-04T09:06:17.117Z,93.20
2018-02-04T09:08:45.041Z,92.80
2018-02-04T09:11:13.246Z,92.40
2018-02-04T09:13:41.242Z,91.70
2018-02-04T09:16:09.182Z,91.00
2018-02-04T09:18:37.150Z,90.10
2018-02-04T09:21:05.223Z,88.80
2018-02-04T09:23:33.091Z,88.70
2018-02-04T09:26:01.214Z,89.10
2018-02-04T09:28:29.951Z,89.30
2018-02-04T09:30:57.919Z,89.20
2018-02-04T09:33:25.961Z,89.20
2018-02-04T09:35:53.960Z,92.60
2018-02-04T09:38:22.308Z,90.20
2018-02-04T09:40:50.428Z,89.90
2018-02-04T09:43:19.135Z,90.00
2018-02-04T09:45:48.062Z,90.00
2018-02-04T09:48:16.161Z,89.80
2018-02-04T09:50:44.413Z,89.00
2018-02-04T09:53:12.509Z,83.80
2018-02-04T09:55:40.840Z,82.80
2018-02-04T09:58:09.156Z,80.80
2018-02-04T10:00:37.135Z,79.20
2018-02-04T10:03:05.211Z,79.60
2018-02-04T10:05:33.176Z,80.70
2018-02-04T10:08:01.069Z,80.90
2018-02-04T10:10:29.217Z,77.20
2018-02-04T10:12:57.686Z,78.90
2018-02-04T10:15:25.776Z,76.50
2018-02-04T10:17:53.958Z,75.60
2018-02-04T10:20:22.015Z,77.10
2018-02-04T10:22:49.907Z,80.10
2018-02-04T10:25:17.956Z,74.50
2018-02-04T10:27:45.926Z,72.20
2018-02-04T10:30:13.924Z,70.40
2018-02-04T10:32:42.531Z,67.00
2018-02-04T10:35:10.387Z,66.90
2018-02-04T10:37:39.337Z,68.80
2018-02-04T10:40:07.440Z,67.90
2018-02-04T10:42:36.405Z,64.10
2018-02-04T10:45:04.267Z,63.20
2018-02-04T10:47:32.544Z,64.30
2018-02-04T10:50:00.514Z,65.60
2018-02-04T10:52:28.641Z,66.80
2018-02-04T10:54:56.861Z,66.60
2018-02-04T10:57:24.933Z,65.30
2018-02-04T10:59:53.209Z,63.20
2018-02-04T11:02:21.486Z,61.40
2018-02-04T11:04:49.663Z,59.90
2018-02-04T11:07:17.589Z,62.80
2018-02-04T11:09:45.769Z,69.60
2018-02-04T11:12:13.846Z,69.60
2018-02-04T11:14:41.900Z,69.30
2018-02-04T11:17:09.767Z,68.80
2018-02-04T11:19:37.972Z,66.70
2018-02-04T11:22:05.856Z,65.30
2018-02-04T11:24:33.928Z,68.10
2018-02-04T11:27:02.272Z,64.30
2018-02-04T11:29:31.351Z,63.10
2018-02-04T11:31:59.511Z,57.70
2018-02-04T11:34:28.424Z,55.20
2018-02-04T11:36:56.435Z,55.20
2018-02-04T11:39:24.514Z,54.50
2018-02-04T11:41:52.889Z,53.00
2018-02-04T11:44:20.985Z,53.30
2018-02-04T11:46:49.084Z,52.50
2018-02-04T11:49:17.215Z,51.40
2018-02-04T11:51:46.119Z,53.30
2018-02-04T11:54:14.328Z,52.80
2018-02-04T11:56:42.236Z,54.20
2018-02-04T11:59:10.382Z,53.50
2018-02-04T12:01:38.440Z,53.10
2018-02-04T12:04:06.292Z,51.70
2018-02-04T12:06:35.321Z,52.00
2018-02-04T12:09:03.532Z,52.00
2018-02-04T12:11:31.687Z,51.40
2018-02-04T12:13:59.509Z,51.60
2018-02-04T12:16:27.425Z,52.20
2018-02-04T12:18:55.529Z,51.10
2018-02-04T12:21:23.807Z,51.10
2018-02-04T12:23:52.888Z,50.30
2018-02-04T12:26:22.171Z,50.40
2018-02-04T12:28:50.303Z,50.50
2018-02-04T12:31:18.211Z,50.40
2018-02-04T12:33:46.071Z,50.30
2018-02-04T12:36:14.149Z,50.00
2018-02-04T12:38:42.529Z,50.10
2018-02-04T12:41:11.037Z,49.50
2018-02-04T12:43:39.971Z,48.50
2018-02-04T12:46:08.008Z,48.50
2018-02-04T12:48:36.865Z,47.20
2018-02-04T12:51:05.348Z,47.10
2018-02-04T12:53:33.416Z,48.00
2018-02-04T12:56:01.644Z,48.30
2018-02-04T12:58:29.562Z,49.50
2018-02-04T13:00:57.555Z,48.20
2018-02-04T13:03:25.600Z,47.20
2018-02-04T13:05:53.483Z,46.50
2018-02-04T13:08:21.438Z,46.10
2018-02-04T13:10:49.613Z,47.00
2018-02-04T13:13:17.683Z,46.30
2018-02-04T13:15:45.756Z,47.50
2018-02-04T13:18:13.620Z,47.30
2018-02-04T13:20:41.599Z,46.00
2018-02-04T13:23:09.570Z,47.10
2018-02-04T13:25:37.690Z,48.10
2018-02-04T13:28:05.603Z,47.90
2018-02-04T13:30:33.467Z,47.80
2018-02-04T13:33:01.278Z,48.40
2018-02-04T13:35:30.200Z,47.70
2018-02-04T13:37:58.564Z,47.60
2018-02-04T13:40:26.676Z,47.40
2018-02-04T13:42:54.543Z,47.60
2018-02-04T13:45:22.820Z,48.50
2018-02-04T13:47:50.720Z,49.00
2018-02-04T13:50:19.702Z,49.60
2018-02-04T13:52:47.753Z,49.60
2018-02-04T13:55:15.991Z,50.40
2018-02-04T13:57:43.997Z,50.60
2018-02-04T14:00:12.152Z,51.10
2018-02-04T14:02:40.243Z,55.90
2018-02-04T14:05:08.212Z,57.80
2018-02-04T14:07:36.376Z,55.20
2018-02-04T14:10:04.514Z,53.00
2018-02-04T14:12:32.656Z,52.40
2018-02-04T14:15:01.524Z,52.50
2018-02-04T14:17:29.697Z,52.40
2018-02-04T14:19:57.834Z,53.00
2018-02-04T14:22:26.455Z,53.40
2018-02-04T14:24:54.412Z,54.00
2018-02-04T14:27:22.496Z,54.00
2018-02-04T14:29:50.655Z,54.00
2018-02-04T14:32:18.709Z,54.00
2018-02-04T14:34:46.715Z,53.50
2018-02-04T14:37:14.780Z,53.40
2018-02-04T14:39:42.828Z,53.80
2018-02-04T14:42:11.016Z,53.90
2018-02-04T14:44:39.102Z,53.40
2018-02-04T14:47:07.267Z,52.30
2018-02-04T14:49:35.249Z,51.70
2018-02-04T14:52:03.318Z,51.80
2018-02-04T14:54:31.186Z,51.90
2018-02-04T14:56:59.262Z,52.10
2018-02-04T14:59:27.527Z,52.50
2018-02-04T15:01:55.568Z,53.00
2018-02-04T15:04:23.469Z,53.90
2018-02-04T15:06:51.808Z,54.00
2018-02-04T15:09:19.905Z,54.30
2018-02-04T15:11:48.197Z,54.60
2018-02-04T15:14:16.679Z,54.80
2018-02-04T15:16:44.805Z,55.20
2018-02-04T15:19:13.119Z,56.20
2018-02-04T15:21:41.016Z,58.30
2018-02-04T15:24:08.965Z,62.80
2018-02-04T15:26:37.258Z,65.60
2018-02-04T15:29:05.313Z,67.50
2018-02-04T15:31:33.729Z,68.60
2018-02-04T15:34:02.684Z,67.80
2018-02-04T15:36:30.677Z,67.80
2018-02-04T15:38:59.345Z,67.80
2018-02-04T15:41:27.714Z,67.80
2018-02-04T15:43:55.689Z,65.60
2018-02-04T15:46:23.865Z,64.20
2018-02-04T15:48:52.126Z,66.00
2018-02-04T15:51:20.312Z,66.20
2018-02-04T15:53:48.366Z,67.40
2018-02-04T15:56:16.464Z,68.80
2018-02-04T15:58:44.426Z,69.10
2018-02-04T16:01:13.523Z,71.90
2018-02-04T16:03:41.695Z,72.00
2018-02-04T16:06:09.971Z,71.80
2018-02-04T16:08:38.760Z,72.70
2018-02-04T16:11:06.729Z,72.70
2018-02-04T16:13:34.718Z,74.30
2018-02-04T16:16:02.769Z,78.40
2018-02-04T16:18:31.763Z,78.90
2018-02-04T16:21:00.246Z,78.90
2018-02-04T16:23:28.213Z,79.80
2018-02-04T16:25:56.184Z,80.70
2018-02-04T16:28:24.329Z,82.30
2018-02-04T16:30:52.551Z,84.00
2018-02-04T16:33:20.366Z,87.00
2018-02-04T16:35:48.367Z,87.30
2018-02-04T16:38:17.045Z,87.50
2018-02-04T16:40:44.897Z,88.40
2018-02-04T16:43:12.810Z,88.90
2018-02-04T16:45:40.662Z,88.90
2018-02-04T16:48:08.726Z,89.10
2018-02-04T16:50:36.868Z,89.50
2018-02-04T16:53:04.763Z,89.80
2018-02-04T16:55:32.838Z,90.00
2018-02-04T16:58:00.727Z,90.00
2018-02-04T17:00:28.676Z,90.10
2018-02-04T17:02:56.612Z,89.70
2018-02-04T17:05:24.913Z,89.30
2018-02-04T17:07:53.202Z,89.70
2018-02-04T17:10:21.180Z,90.00
2018-02-04T17:12:49.515Z,90.50
2018-02-04T17:15:17.415Z,91.00
2018-02-04T17:17:45.472Z,91.30
2018-02-04T17:20:13.468Z,91.60
2018-02-04T17:22:42.442Z,92.50
2018-02-04T17:25:10.296Z,92.50
2018-02-04T17:27:38.452Z,92.60
2018-02-04T17:30:06.693Z,92.60
2018-02-04T17:32:35.552Z,93.70
2018-02-04T17:35:03.717Z,93.60
2018-02-04T17:37:31.584Z,93.40
2018-02-04T17:39:59.579Z,93.00
2018-02-04T17:42:27.636Z,93.00
2018-02-04T17:44:55.497Z,93.00
2018-02-04T17:47:23.399Z,93.10
2018-02-04T17:49:52.671Z,93.60
2018-02-04T17:52:20.743Z,93.60
2018-02-04T17:54:48.843Z,93.40
2018-02-04T17:57:17.705Z,93.90
2018-02-04T17:59:45.796Z,93.80
2018-02-04T18:02:13.929Z,94.00
2018-02-04T18:04:41.791Z,94.20
2018-02-04T18:07:09.887Z,94.40
2018-02-04T18:09:37.959Z,94.60
2018-02-04T18:12:06.033Z,94.70
2018-02-04T18:14:34.226Z,94.70
2018-02-04T18:17:03.608Z,94.40
2018-02-04T18:19:31.894Z,94.30
2018-02-04T18:22:00.060Z,94.30
2018-02-04T18:24:28.138Z,94.40
2018-02-04T18:26:56.201Z,94.70
2018-02-04T18:29:24.444Z,94.70
2018-02-04T18:31:52.632Z,94.50
2018-02-04T18:34:20.828Z,94.50
2018-02-04T18:36:48.894Z,94.40
2018-02-04T18:39:16.873Z,94.40
2018-02-04T18:41:44.947Z,94.40
2018-02-04T18:44:13.209Z,94.20
2018-02-04T18:46:41.289Z,94.10
2018-02-04T18:49:09.287Z,94.10
2018-02-04T18:51:38.005Z,93.90
2018-02-04T18:54:05.913Z,93.90
2018-02-04T18:56:33.780Z,94.00
2018-02-04T18:59:01.756Z,94.20
2018-02-04T19:01:30.718Z,94.30
2018-02-04T19:03:58.715Z,94.40
2018-02-04T19:06:26.680Z,94.70
2018-02-04T19:08:54.620Z,94.90
2018-02-04T19:11:22.580Z,95.10
2018-02-04T19:13:50.493Z,95.50
2018-02-04T19:16:18.455Z,95.70
2018-02-04T19:18:46.527Z,95.70
2018-02-04T19:21:14.505Z,96.00
2018-02-04T19:23:42.531Z,96.10
2018-02-04T19:26:10.536Z,96.00
2018-02-04T19:28:38.664Z,95.90
2018-02-04T19:31:06.660Z,96.30
2018-02-04T19:33:34.675Z,96.80
2018-02-04T19:36:02.823Z,96.70
2018-02-04T19:38:30.871Z,96.60
2018-02-04T19:40:58.832Z,96.40
2018-02-04T19:43:26.941Z,96.10
2018-02-04T19:45:54.907Z,96.00
2018-02-04T19:48:22.881Z,95.80
2018-02-04T19:50:51.182Z,95.30
2018-02-04T19:53:20.367Z,94.20
2018-02-04T19:55:48.291Z,94.10
2018-02-04T19:58:16.511Z,94.50
2018-02-04T20:00:44.648Z,94.40
2018-02-04T20:03:12.772Z,94.40
2018-02-04T20:05:41.631Z,94.70
2018-02-04T20:08:09.700Z,94.70
2018-02-04T20:10:37.655Z,95.00
2018-02-04T20:13:05.538Z,95.00
2018-02-04T20:15:33.711Z,94.90
2018-02-04T20:18:01.587Z,95.00
2018-02-04T20:20:29.423Z,95.00
2018-02-04T20:22:57.574Z,95.10
2018-02-04T20:25:25.544Z,95.20
2018-02-04T20:27:53.483Z,95.10
2018-02-04T20:30:21.773Z,95.20
2018-02-04T20:33:01.408Z,95.30
2018-02-04T20:35:30.279Z,95.60
2018-02-04T20:37:58.195Z,95.60
2018-02-04T20:40:26.534Z,95.50
2018-02-04T20:42:55.198Z,95.80
2018-02-04T20:45:23.478Z,95.70
2018-02-04T20:47:51.431Z,95.90
2018-02-04T20:50:19.525Z,96.00
2018-02-04T20:52:47.586Z,96.20
2018-02-04T20:55:15.767Z,96.30
2018-02-04T20:57:44.036Z,96.30
2018-02-04T21:00:12.015Z,96.30
2018-02-04T21:02:40.268Z,96.40
2018-02-04T21:05:08.141Z,96.40
2018-02-04T21:07:36.136Z,96.50
2018-02-04T21:10:04.193Z,96.80
2018-02-04T21:12:32.371Z,96.60
2018-02-04T21:15:00.440Z,96.40
2018-02-04T21:17:28.573Z,96.20
2018-02-04T21:19:56.581Z,96.30
2018-02-04T21:22:24.817Z,96.40
2018-02-04T21:24:52.698Z,96.30
2018-02-04T21:27:20.896Z,96.20
2018-02-04T21:29:48.927Z,96.30
2018-02-04T21:32:16.915Z,96.20
2018-02-04T21:34:45.312Z,96.00
2018-02-04T21:37:13.287Z,96.00
2018-02-04T21:39:41.471Z,95.80
2018-02-04T21:42:09.533Z,95.80
2018-02-04T21:44:37.706Z,95.90
2018-02-04T21:47:05.888Z,96.00
2018-02-04T21:49:34.032Z,96.10
2018-02-04T21:52:02.093Z,96.20
2018-02-04T21:54:30.016Z,96.30
2018-02-04T21:56:57.941Z,96.50
2018-02-04T21:59:25.935Z,96.60
2018-02-04T22:01:54.296Z,96.70
2018-02-04T22:04:22.095Z,96.90
2018-02-04T22:06:50.932Z,97.10
2018-02-04T22:09:18.900Z,97.10
2018-02-04T22:11:47.097Z,97.20
2018-02-04T22:14:15.500Z,97.20
2018-02-04T22:16:43.354Z,97.20
2018-02-04T22:19:11.311Z,97.20
2018-02-04T22:21:39.292Z,97.40
2018-02-04T22:24:07.161Z,97.40
2018-02-04T22:26:35.560Z,97.30
2018-02-04T22:29:03.509Z,97.40
2018-02-04T22:31:31.785Z,97.30
2018-02-04T22:33:59.855Z,97.20
2018-02-04T22:36:27.835Z,97.10
2018-02-04T22:38:55.716Z,97.20
2018-02-04T22:41:23.752Z,97.00
2018-02-04T22:43:51.639Z,97.00
2018-02-04T22:46:19.900Z,96.90
2018-02-04T22:48:48.101Z,96.90
2018-02-04T22:51:16.280Z,97.00
2018-02-04T22:53:44.328Z,97.10
2018-02-04T22:56:12.627Z,97.20
2018-02-04T22:58:40.792Z,97.20
2018-02-04T23:01:08.812Z,97.50
2018-02-04T23:03:36.818Z,97.40
2018-02-04T23:06:04.843Z,97.50
2018-02-04T23:08:32.756Z,97.70
2018-02-04T23:11:00.828Z,97.80
2018-02-04T23:13:28.980Z,97.90
2018-02-04T23:15:57.293Z,97.90
2018-02-04T23:18:25.316Z,97.90
2018-02-04T23:20:53.424Z,98.00
2018-02-04T23:23:21.540Z,98.00
2018-02-04T23:25:50.371Z,98.00
2018-02-04T23:28:18.457Z,98.00
2018-02-04T23:30:46.493Z,98.10
2018-02-04T23:33:14.577Z,98.20
2018-02-04T23:35:42.778Z,98.30
2018-02-04T23:38:10.850Z,98.40
2018-02-04T23:40:38.900Z,99.50
2018-02-04T23:43:07.101Z,99.00
2018-02-04T23:45:35.061Z,98.80
2018-02-04T23:48:02.908Z,98.60
2018-02-04T23:50:31.308Z,98.60
2018-02-04T23:52:59.586Z,98.60
2018-02-04T23:55:27.756Z,98.60
2018-02-04T23:57:55.728Z,98.60
